Latest Weather Observations for Ouse

IDT60801

Issued at 7:02 am EST Monday 20 April 2015 (issued every 30 minutes, with the page automatically refreshed every 10 minutes)

About weather observations | Map of weather stations | Latest weather observations for TAS | Other Formats
Station Details ID: 095048 Name: OUSE FIRE STATION Lat: -42.48 Lon: 146.71 Height: 90.0 m
Data from the previous 72 hours. | See also: Recent months at Ouse
Date/Time
EST
Temp
°C
App
Temp
°C
Dew
Point
Rel
Hum
%
Delta-T
°C
Wind Press
QNH
hPa
Press
MSL
hPa
Rain
since 9 am
mm
Dir
 
Spd
km/h
Gust
km/h
Spd
kts
Gust
kts
20/07:00am -2.1 -4.4 -2.6 96 0.1 CALM 0 0 0 0 1036.4 1036.5 0.0
20/06:30am -1.9 -4.2 -2.6 95 0.1 CALM 0 0 0 0 1036.4 1036.5 0.0
20/06:00am -1.9 -4.2 -2.7 94 0.2 CALM 0 0 0 0 1036.3 1036.4 0.0
20/05:30am -1.5 -3.8 -2.5 93 0.3 CALM 0 0 0 0 1036.0 1036.1 0.0
20/05:00am -1.0 -3.7 -2.1 92 0.3 NNW 2 7 1 4 1035.8 1035.9 0.0
20/04:30am 0.1 -3.7 -1.0 92 0.4 NNW 9 13 5 7 1035.6 1035.7 0.0
20/04:00am -0.2 -3.7 -1.3 92 0.4 N 7 11 4 6 1035.5 1035.6 0.0
20/03:30am 0.6 -3.2 -0.8 90 0.5 N 9 13 5 7 1035.3 1035.4 0.0
20/03:00am 0.5 -3.3 -0.5 93 0.4 N 9 13 5 7 1035.4 1035.5 0.0
20/02:30am -0.3 -4.2 -1.4 92 0.4 N 9 11 5 6 1035.4 1035.5 0.0
20/02:00am 0.5 -3.3 -0.8 91 0.5 N 9 13 5 7 1035.4 1035.5 0.0
20/01:30am 0.7 -3.5 -0.6 91 0.5 N 11 13 6 7 1035.3 1035.4 0.0
20/01:00am 0.9 -2.9 -0.4 91 0.5 N 9 13 5 7 1035.4 1035.5 0.0
20/12:30am 0.8 -3.7 -0.5 91 0.5 N 13 15 7 8 1035.1 1035.2 0.0
20/12:00am 1.2 -2.5 -0.3 90 0.5 N 9 13 5 7 1035.0 1035.1 0.0
 
Date/Time
EST
Temp
°C
App
Temp
°C
Dew
Point
Rel
Hum
%
Delta-T
°C
Wind Press
QNH
hPa
Press
MSL
hPa
Rain
since 9 am
mm
Dir
 
Spd
km/h
Gust
km/h
Spd
kts
Gust
kts
19/11:30pm 2.0 -2.0 0.2 88 0.7 N 11 15 6 8 1035.0 1035.1 0.0
19/11:00pm 1.7 -2.4 -0.1 88 0.7 N 11 15 6 8 1034.8 1034.9 0.0
19/10:30pm 1.5 -2.2 -0.3 88 0.6 N 9 11 5 6 1034.6 1034.7 0.0
19/10:00pm 2.3 -1.4 0.0 85 0.8 N 9 13 5 7 1034.5 1034.6 0.0
19/09:30pm 3.4 -0.6 0.8 83 1.0 N 11 17 6 9 1034.4 1034.5 0.0
19/09:00pm 2.4 -0.8 -0.2 83 0.9 N 6 7 3 4 1034.1 1034.2 0.0
19/08:30pm 2.9 -0.7 0.5 84 0.9 N 9 11 5 6 1033.5 1033.6 0.0
19/08:00pm 3.3 0.0 0.4 81 1.1 N 7 13 4 7 1033.0 1033.1 0.0
19/07:30pm 4.8 1.2 0.9 76 1.5 WNW 9 11 5 6 1032.6 1032.7 0.0
19/07:00pm 5.9 2.3 0.5 68 2.1 W 9 11 5 6 1032.1 1032.2 0.0
19/06:30pm 7.3 3.8 1.0 64 2.5 W 9 11 5 6 1031.6 1031.7 0.0
19/06:00pm 8.5 3.8 1.0 59 3.0 SW 15 20 8 11 1031.0 1031.1 0.0
19/05:30pm 9.2 4.5 0.6 55 3.5 WNW 15 20 8 11 1030.2 1030.3 0.0
19/05:00pm 10.3 5.2 0.6 51 3.9 W 17 24 9 13 1029.7 1029.8 0.0
19/04:30pm 11.2 5.6 -0.3 45 4.7 W 19 30 10 16 1029.4 1029.5 0.0
19/04:00pm 12.1 7.2 -0.4 42 5.1 SSW 15 20 8 11 1028.8 1028.8 0.0
19/03:30pm 13.1 7.2 -0.9 38 5.7 SW 20 28 11 15 1028.7 1028.7 0.0
19/03:00pm 13.2 5.5 -3.1 32 6.3 SSW 28 39 15 21 1028.3 1028.3 0.0
19/02:30pm 13.5 7.1 -1.6 35 6.1 SW 22 32 12 17 1027.8 1027.8 0.0
19/02:00pm 14.2 6.5 -2.7 31 6.7 SW 28 41 15 22 1027.4 1027.5 0.0
19/01:30pm 13.6 8.3 -0.4 38 5.8 WSW 17 22 9 12 1027.1 1027.2 0.0
19/01:00pm 11.6 4.5 1.3 49 4.3 WSW 28 35 15 19 1027.1 1027.2 0.0
19/12:30pm 12.3 7.8 -0.6 41 5.3 S 13 20 7 11 1026.8 1026.9 0.0
19/12:00pm 11.2 6.2 -1.2 42 4.9 S 15 30 8 16 1026.6 1026.7 0.0
19/11:30am 11.7 6.7 -1.1 41 5.1 SSW 15 24 8 13 1026.4 1026.5 0.0
19/11:00am 11.4 8.4 1.9 52 4.0 SSW 7 11 4 6 1026.2 1026.3 0.0
19/10:30am 10.3 6.1 1.7 55 3.6 W 13 19 7 10 1025.8 1025.9 0.0
19/10:00am 8.8 3.6 2.4 64 2.7 SW 19 28 10 15 1025.6 1025.7 0.0
19/09:30am 8.7 5.5 2.9 67 2.5 NW 9 15 5 8 1025.1 1025.2 0.0
19/09:00am 8.0 5.5 4.6 79 1.5 NNW 7 11 4 6 1024.7 1024.8 1.0
19/08:30am 7.8 4.1 2.5 69 2.2 SSW 11 24 6 13 1024.5 1024.6 0.2
19/08:00am 6.9 4.0 2.4 73 1.9 SE 7 13 4 7 1023.5 1023.6 0.2
19/07:30am 6.8 1.5 1.7 70 2.1 WNW 19 26 10 14 1022.4 1022.5 0.2
19/07:00am 6.5 0.9 1.2 69 2.1 WNW 20 26 11 14 1021.5 1021.6 0.2
19/06:30am 6.5 2.6 3.3 80 1.3 W 13 24 7 13 1020.9 1021.0 0.2
19/06:00am 5.4 3.5 2.6 82 1.1 ENE 2 9 1 5 1019.8 1019.8 0.2
19/05:30am 5.9 3.1 3.2 83 1.1 NNW 7 11 4 6 1019.0 1019.0 0.2
19/05:00am 6.8 5.0 3.4 79 1.4 ESE 2 9 1 5 1018.2 1018.2 0.2
19/04:30am 7.6 1.6 3.3 74 1.8 WSW 24 41 13 22 1017.3 1017.3 0.2
19/04:00am 7.0 4.4 4.3 83 1.2 SE 7 13 4 7 1016.2 1016.2 0.2
19/03:30am 8.4 4.3 4.2 75 1.8 WSW 15 24 8 13 1015.4 1015.5 0.2
19/03:00am 7.0 5.0 4.5 84 1.1 ESE 4 9 2 5 1014.6 1014.7 0.2
19/02:30am 7.8 3.4 4.9 82 1.3 WNW 17 24 9 13 1014.0 1014.1 0.2
19/02:00am 6.0 3.5 4.5 90 0.6 NNW 7 11 4 6 1013.7 1013.8 0.2
19/01:30am 5.9 2.9 4.2 89 0.7 N 9 13 5 7 1013.3 1013.4 0.2
19/01:00am 5.7 2.7 4.2 90 0.6 N 9 13 5 7 1012.8 1012.9 0.2
19/12:30am 6.0 3.0 4.2 88 0.8 NNW 9 13 5 7 1012.4 1012.5 0.2
19/12:00am 7.1 4.2 4.4 83 1.2 NNW 9 11 5 6 1011.9 1012.0 0.2
 
Date/Time
EST
Temp
°C
App
Temp
°C
Dew
Point
Rel
Hum
%
Delta-T
°C
Wind Press
QNH
hPa
Press
MSL
hPa
Rain
since 9 am
mm
Dir
 
Spd
km/h
Gust
km/h
Spd
kts
Gust
kts
18/11:30pm 8.3 4.6 4.7 78 1.6 NW 13 19 7 10 1011.3 1011.4 0.2
18/11:00pm 8.5 4.9 4.9 78 1.6 NW 13 17 7 9 1011.1 1011.2 0.2
18/10:30pm 7.4 4.9 3.8 78 1.6 NNW 6 9 3 5 1010.6 1010.6 0.2
18/10:00pm 8.3 4.5 4.1 75 1.8 NNW 13 17 7 9 1010.4 1010.4 0.2
18/09:30pm 9.4 4.9 4.4 71 2.2 NNW 17 24 9 13 1009.9 1009.9 0.2
18/09:00pm 9.8 6.1 4.6 70 2.3 NNW 13 19 7 10 1009.6 1009.6 0.2
18/08:30pm 10.1 6.4 4.7 69 2.4 N 13 15 7 8 1009.3 1009.3 0.2
18/08:00pm 10.0 7.2 5.2 72 2.2 N 9 13 5 7 1008.7 1008.7 0.2
18/07:30pm 10.3 7.1 5.1 70 2.4 NW 11 17 6 9 1008.2 1008.2 0.2
18/07:00pm 10.5 7.8 5.7 72 2.2 NNW 9 17 5 9 1007.8 1007.8 0.2
18/06:30pm 10.4 9.6 6.4 76 1.9 CALM 0 7 0 4 1007.4 1007.4 0.2
18/06:00pm 10.8 8.5 5.6 70 2.4 W 7 11 4 6 1007.0 1007.0 0.2
18/05:30pm 11.3 6.9 5.0 65 2.9 WNW 17 24 9 13 1006.7 1006.7 0.2
18/05:00pm 11.5 8.5 5.8 68 2.7 NW 11 20 6 11 1006.2 1006.2 0.2
18/04:30pm 12.0 9.0 5.9 66 2.9 NW 11 24 6 13 1005.8 1005.8 0.2
18/04:00pm 13.0 8.5 5.9 62 3.4 W 19 35 10 19 1005.2 1005.2 0.2
18/03:30pm 13.1 8.0 7.5 69 2.7 WSW 24 41 13 22 1004.2 1004.3 0.2
18/03:04pm 13.7 7.0 8.3 70 2.7 WSW 33 52 18 28 1003.1 1003.2 0.2
18/03:00pm 14.6 8.5 8.1 65 3.3 W 30 52 16 28 1003.0 1003.1 0.0
18/02:58pm 16.1 10.3 8.1 59 4.1 WNW 28 52 15 28 1002.7 1002.8 0.0
18/02:30pm 18.1 12.5 8.9 55 4.8 NW 28 43 15 23 1001.9 1002.0 0.0
18/02:00pm 19.3 14.4 8.3 49 5.7 NW 24 39 13 21 1001.7 1001.8 0.0
18/01:30pm 17.8 13.2 8.1 53 5.0 NW 22 33 12 18 1002.3 1002.4 0.0
18/01:00pm 18.5 13.4 7.6 49 5.6 NW 24 39 13 21 1002.5 1002.6 0.0
18/12:30pm 18.3 13.1 7.4 49 5.5 NW 24 35 13 19 1003.0 1003.1 0.0
18/12:00pm 18.5 12.8 6.7 46 5.9 NW 26 43 14 23 1003.2 1003.3 0.0
18/11:42am 19.0 12.8 6.1 43 6.4 NW 28 46 15 25 1003.5 1003.6 0.0
18/11:30am 19.0 11.8 5.8 42 6.5 NW 33 48 18 26 1003.8 1003.9 0.0
18/11:18am 18.6 11.4 5.1 41 6.6 NW 32 50 17 27 1004.1 1004.2 0.0
18/11:00am 18.9 12.6 5.7 42 6.5 NW 28 43 15 23 1004.4 1004.5 0.0
18/10:30am 18.1 11.7 5.0 42 6.3 NW 28 46 15 25 1004.9 1004.9 0.0
18/10:27am 17.7 11.2 4.6 42 6.3 NW 28 46 15 25 1005.0 1005.0 0.0
18/10:00am 17.4 12.6 5.4 45 5.8 NNW 20 32 11 17 1005.3 1005.3 0.0
18/09:30am 16.6 12.8 5.6 48 5.3 NNW 15 24 8 13 1005.8 1005.8 0.0
18/09:00am 15.6 11.9 6.1 53 4.6 NNW 15 26 8 14 1006.2 1006.2 0.0
18/08:30am 12.3 10.1 6.1 66 2.9 N 7 11 4 6 1006.5 1006.5 0.0
18/08:00am 8.1 5.8 5.7 85 1.1 NNW 7 9 4 5 1007.1 1007.1 0.0
18/07:30am 4.8 2.2 3.3 90 0.6 NNW 6 9 3 5 1006.8 1006.8 0.0
18/07:00am 4.2 0.5 2.6 89 0.7 N 11 15 6 8 1006.7 1006.7 0.0
18/06:30am 4.6 3.0 2.6 87 0.8 CALM 0 0 0 0 1006.9 1006.9 0.0
18/06:00am 4.7 1.5 2.9 88 0.7 N 9 13 5 7 1006.8 1006.8 0.0
18/05:30am 5.3 2.2 3.6 89 0.7 N 9 13 5 7 1006.7 1006.7 0.0
18/05:00am 6.2 3.8 4.5 89 0.7 N 6 7 3 4 1006.6 1006.6 0.0
18/04:30am 6.4 4.1 4.7 89 0.7 N 6 9 3 5 1006.7 1006.7 0.0
18/04:00am 7.2 6.1 5.0 86 1.0 CALM 0 6 0 3 1006.8 1006.8 0.0
18/03:30am 8.4 7.5 5.9 84 1.1 CALM 0 0 0 0 1006.9 1006.9 0.0
18/03:00am 8.8 7.5 6.1 83 1.2 E 2 7 1 4 1007.1 1007.1 0.0
18/02:30am 8.9 7.6 6.0 82 1.3 NNE 2 7 1 4 1007.3 1007.3 0.0
18/02:00am 9.2 7.1 5.9 80 1.5 NNW 6 9 3 5 1008.3 1008.3 0.0
18/01:30am 9.9 7.7 6.1 77 1.8 NNW 7 9 4 5 1009.0 1009.0 0.0
18/01:00am 9.4 6.8 6.1 80 1.5 N 9 15 5 8 1009.6 1009.6 0.0
18/12:30am 9.7 6.7 6.1 78 1.7 NNW 11 15 6 8 1010.2 1010.2 0.0
18/12:00am 8.9 6.7 6.2 83 1.2 N 7 11 4 6 1010.4 1010.4 0.0
 
Date/Time
EST
Temp
°C
App
Temp
°C
Dew
Point
Rel
Hum
%
Delta-T
°C
Wind Press
QNH
hPa
Press
MSL
hPa
Rain
since 9 am
mm
Dir
 
Spd
km/h
Gust
km/h
Spd
kts
Gust
kts
17/11:30pm 8.3 5.6 5.8 84 1.1 N 9 11 5 6 1010.9 1011.0 0.0
17/11:00pm 8.0 5.9 5.6 85 1.1 N 6 7 3 4 1011.4 1011.5 0.0
17/10:30pm 7.7 5.3 5.2 84 1.1 N 7 11 4 6 1011.5 1011.6 0.0
17/10:00pm 7.7 5.5 5.2 84 1.1 NNE 6 7 3 4 1012.0 1012.1 0.0
17/09:30pm 7.2 4.3 4.5 83 1.2 N 9 11 5 6 1012.4 1012.5 0.0
17/09:00pm 8.9 6.2 5.5 79 1.5 NNW 9 11 5 6 1012.9 1013.0 0.0
17/08:30pm 7.9 5.2 5.5 85 1.1 N 9 11 5 6 1013.0 1013.1 0.0
17/08:00pm 7.5 4.6 4.6 82 1.3 N 9 11 5 6 1013.4 1013.5 0.0
17/07:30pm 8.0 5.4 4.0 76 1.7 NNW 7 11 4 6 1013.6 1013.7 0.0
17/07:00pm 9.9 8.6 4.3 68 2.5 CALM 0 4 0 2 1013.7 1013.8 0.0
17/06:30pm 12.1 9.8 4.8 61 3.4 WNW 6 7 3 4 1013.4 1013.5 0.0
17/06:00pm 14.9 11.8 5.7 54 4.4 WNW 11 20 6 11 1013.7 1013.8 0.0
17/05:30pm 15.9 12.3 4.9 48 5.2 WNW 13 20 7 11 1013.5 1013.6 0.0
17/05:00pm 16.9 14.3 6.1 49 5.3 WNW 9 17 5 9 1013.6 1013.7 0.0
17/04:30pm 17.5 14.1 6.1 47 5.6 WSW 13 19 7 10 1013.6 1013.7 0.0
17/04:00pm 18.5 14.6 5.4 42 6.4 WSW 15 20 8 11 1013.8 1013.9 0.0
17/03:30pm 19.0 14.8 5.5 41 6.6 W 17 24 9 13 1014.3 1014.4 0.0
17/03:00pm 19.9 16.0 5.2 38 7.2 W 15 24 8 13 1014.6 1014.7 0.0
17/02:30pm 19.9 15.7 5.5 39 7.1 W 17 30 9 16 1014.9 1015.0 0.0
17/02:00pm 19.0 15.4 5.1 40 6.8 WNW 13 20 7 11 1014.8 1014.9 0.0
17/01:30pm 19.1 14.8 5.2 40 6.8 WNW 17 26 9 14 1015.3 1015.4 0.0
17/01:00pm 19.0 14.8 5.5 41 6.6 WNW 17 28 9 15 1015.9 1016.0 0.0
17/12:30pm 18.9 13.9 4.7 39 6.9 WNW 20 35 11 19 1016.9 1016.9 0.0
17/12:00pm 18.3 13.7 5.5 43 6.2 WNW 19 28 10 15 1017.5 1017.5 0.0
17/11:30am 17.9 13.3 5.5 44 6.0 WNW 19 28 10 15 1018.1 1018.1 0.0
17/11:00am 17.4 12.6 5.4 45 5.8 NW 20 28 11 15 1018.6 1018.6 0.0
17/10:30am 17.3 12.8 5.9 47 5.6 WNW 19 30 10 16 1019.2 1019.2 0.0
17/10:00am 16.4 11.9 6.0 50 5.1 NW 19 30 10 16 1019.4 1019.4 0.0
17/09:30am 15.9 11.3 6.3 53 4.7 NW 20 32 11 17 1019.7 1019.7 0.0
17/09:00am 14.9 10.8 6.0 55 4.3 NW 17 26 9 14 1020.2 1020.3 0.0
17/08:30am 14.2 11.5 7.5 64 3.3 N 11 17 6 9 1020.6 1020.7 0.0
17/08:00am 11.3 8.8 6.6 73 2.2 N 9 11 5 6 1020.8 1020.9 0.0
17/07:30am 10.0 7.1 6.7 80 1.6 NNW 11 15 6 8 1020.6 1020.7 0.0

Other Formats:

Comma delimited format used in spreadsheet applications
http://www.bom.gov.au/fwo/IDT60801/IDT60801.94957.axf

JavaScript Object Notation format (JSON) in row-major order
http://www.bom.gov.au/fwo/IDT60801/IDT60801.94957.json